sensor_id;sensor_type;location;lat;lon;timestamp;temperature;humidity
4548;DHT22;2286;51.570;7.090;2023-01-19T00:00:20;1.90;99.90
4548;DHT22;2286;51.570;7.090;2023-01-19T00:02:47;2.00;99.90
4548;DHT22;2286;51.570;7.090;2023-01-19T00:05:15;1.90;99.90
4548;DHT22;2286;51.570;7.090;2023-01-19T00:07:42;1.90;99.90
4548;DHT22;2286;51.570;7.090;2023-01-19T00:10:10;1.90;99.90
4548;DHT22;2286;51.570;7.090;2023-01-19T00:12:36;1.90;99.90
4548;DHT22;2286;51.570;7.090;2023-01-19T00:15:06;1.90;99.90
4548;DHT22;2286;51.570;7.090;2023-01-19T00:17:33;1.90;99.90
4548;DHT22;2286;51.570;7.090;2023-01-19T00:19:59;1.80;99.90
4548;DHT22;2286;51.570;7.090;2023-01-19T00:22:26;1.70;1.00
4548;DHT22;2286;51.570;7.090;2023-01-19T00:24:53;1.70;1.00
4548;DHT22;2286;51.570;7.090;2023-01-19T00:27:20;1.70;1.00
4548;DHT22;2286;51.570;7.090;2023-01-19T00:29:46;1.70;1.00
4548;DHT22;2286;51.570;7.090;2023-01-19T00:32:15;1.80;1.00
4548;DHT22;2286;51.570;7.090;2023-01-19T00:34:42;1.80;1.00
4548;DHT22;2286;51.570;7.090;2023-01-19T00:37:14;1.90;1.00
4548;DHT22;2286;51.570;7.090;2023-01-19T00:39:40;1.90;1.00
4548;DHT22;2286;51.570;7.090;2023-01-19T00:42:08;2.00;1.00
4548;DHT22;2286;51.570;7.090;2023-01-19T00:44:55;2.00;99.90
4548;DHT22;2286;51.570;7.090;2023-01-19T00:47:23;2.00;99.90
4548;DHT22;2286;51.570;7.090;2023-01-19T00:49:50;2.00;99.90
4548;DHT22;2286;51.570;7.090;2023-01-19T00:52:16;2.00;99.90
4548;DHT22;2286;51.570;7.090;2023-01-19T00:54:44;2.00;1.00
4548;DHT22;2286;51.570;7.090;2023-01-19T00:57:10;2.00;99.90
4548;DHT22;2286;51.570;7.090;2023-01-19T00:59:37;2.00;1.00
4548;DHT22;2286;51.570;7.090;2023-01-19T01:02:04;2.00;99.90
4548;DHT22;2286;51.570;7.090;2023-01-19T01:04:33;2.00;99.90
4548;DHT22;2286;51.570;7.090;2023-01-19T01:07:00;2.00;99.90
4548;DHT22;2286;51.570;7.090;2023-01-19T01:09:27;2.00;99.90
4548;DHT22;2286;51.570;7.090;2023-01-19T01:11:53;2.00;1.00
4548;DHT22;2286;51.570;7.090;2023-01-19T01:14:21;2.00;1.00
4548;DHT22;2286;51.570;7.090;2023-01-19T01:16:49;2.10;1.00
4548;DHT22;2286;51.570;7.090;2023-01-19T01:19:16;2.10;1.00
4548;DHT22;2286;51.570;7.090;2023-01-19T01:21:44;2.00;1.00
4548;DHT22;2286;51.570;7.090;2023-01-19T01:24:11;2.10;1.00
4548;DHT22;2286;51.570;7.090;2023-01-19T01:26:38;2.10;1.00
4548;DHT22;2286;51.570;7.090;2023-01-19T01:29:05;2.10;1.00
4548;DHT22;2286;51.570;7.090;2023-01-19T01:31:32;2.10;99.90
4548;DHT22;2286;51.570;7.090;2023-01-19T01:33:59;2.10;99.90
4548;DHT22;2286;51.570;7.090;2023-01-19T01:36:26;2.10;99.90
4548;DHT22;2286;51.570;7.090;2023-01-19T01:38:59;2.10;99.90
4548;DHT22;2286;51.570;7.090;2023-01-19T01:41:26;2.10;99.90
4548;DHT22;2286;51.570;7.090;2023-01-19T01:43:55;2.10;99.90
4548;DHT22;2286;51.570;7.090;2023-01-19T01:46:23;2.10;99.90
4548;DHT22;2286;51.570;7.090;2023-01-19T01:48:56;2.10;99.90
4548;DHT22;2286;51.570;7.090;2023-01-19T01:51:29;2.00;99.90
4548;DHT22;2286;51.570;7.090;2023-01-19T01:54:05;2.00;1.00
4548;DHT22;2286;51.570;7.090;2023-01-19T01:56:36;2.00;1.00
4548;DHT22;2286;51.570;7.090;2023-01-19T01:59:06;2.10;1.00
4548;DHT22;2286;51.570;7.090;2023-01-19T02:01:34;2.10;99.90
4548;DHT22;2286;51.570;7.090;2023-01-19T02:04:18;2.10;99.90
4548;DHT22;2286;51.570;7.090;2023-01-19T02:06:46;2.10;99.90
4548;DHT22;2286;51.570;7.090;2023-01-19T02:09:35;2.10;99.90
4548;DHT22;2286;51.570;7.090;2023-01-19T02:12:20;2.10;99.90
4548;DHT22;2286;51.570;7.090;2023-01-19T02:15:12;2.10;99.90
4548;DHT22;2286;51.570;7.090;2023-01-19T02:17:40;2.10;99.90
4548;DHT22;2286;51.570;7.090;2023-01-19T02:20:08;2.20;99.90
4548;DHT22;2286;51.570;7.090;2023-01-19T02:22:42;2.10;99.90
4548;DHT22;2286;51.570;7.090;2023-01-19T02:25:12;2.10;99.90
4548;DHT22;2286;51.570;7.090;2023-01-19T02:27:39;2.10;99.90
4548;DHT22;2286;51.570;7.090;2023-01-19T02:30:07;2.10;99.90
4548;DHT22;2286;51.570;7.090;2023-01-19T02:32:35;2.10;99.90
4548;DHT22;2286;51.570;7.090;2023-01-19T02:35:02;2.10;99.90
4548;DHT22;2286;51.570;7.090;2023-01-19T02:37:31;2.10;99.90
4548;DHT22;2286;51.570;7.090;2023-01-19T02:40:03;2.00;1.00
4548;DHT22;2286;51.570;7.090;2023-01-19T02:42:36;2.00;1.00
4548;DHT22;2286;51.570;7.090;2023-01-19T02:45:06;2.00;1.00
4548;DHT22;2286;51.570;7.090;2023-01-19T02:47:38;1.90;1.00
4548;DHT22;2286;51.570;7.090;2023-01-19T02:50:36;1.90;1.00
4548;DHT22;2286;51.570;7.090;2023-01-19T02:53:17;2.00;1.00
4548;DHT22;2286;51.570;7.090;2023-01-19T02:55:52;2.00;99.90
4548;DHT22;2286;51.570;7.090;2023-01-19T02:58:29;2.00;99.90
4548;DHT22;2286;51.570;7.090;2023-01-19T03:01:05;2.10;99.90
4548;DHT22;2286;51.570;7.090;2023-01-19T03:03:39;2.00;99.90
4548;DHT22;2286;51.570;7.090;2023-01-19T03:06:19;1.90;99.90
4548;DHT22;2286;51.570;7.090;2023-01-19T03:08:53;2.00;99.90
4548;DHT22;2286;51.570;7.090;2023-01-19T03:11:23;1.90;1.00
4548;DHT22;2286;51.570;7.090;2023-01-19T03:13:57;1.90;1.00
4548;DHT22;2286;51.570;7.090;2023-01-19T03:16:31;1.90;1.00
4548;DHT22;2286;51.570;7.090;2023-01-19T03:19:13;1.90;1.00
4548;DHT22;2286;51.570;7.090;2023-01-19T03:21:44;1.90;1.00
4548;DHT22;2286;51.570;7.090;2023-01-19T03:24:14;2.00;1.00
4548;DHT22;2286;51.570;7.090;2023-01-19T03:26:44;2.00;1.00
4548;DHT22;2286;51.570;7.090;2023-01-19T03:29:14;2.00;1.00
4548;DHT22;2286;51.570;7.090;2023-01-19T03:31:45;2.00;1.00
4548;DHT22;2286;51.570;7.090;2023-01-19T03:34:14;2.00;1.00
4548;DHT22;2286;51.570;7.090;2023-01-19T03:36:43;2.00;1.00
4548;DHT22;2286;51.570;7.090;2023-01-19T03:39:14;2.00;99.90
4548;DHT22;2286;51.570;7.090;2023-01-19T03:41:46;2.00;99.90
4548;DHT22;2286;51.570;7.090;2023-01-19T03:44:16;2.00;99.90
4548;DHT22;2286;51.570;7.090;2023-01-19T03:46:44;2.00;99.90
4548;DHT22;2286;51.570;7.090;2023-01-19T03:49:11;2.10;99.90
4548;DHT22;2286;51.570;7.090;2023-01-19T03:51:39;2.10;99.90
4548;DHT22;2286;51.570;7.090;2023-01-19T03:54:08;2.10;99.90
4548;DHT22;2286;51.570;7.090;2023-01-19T03:56:35;2.10;99.90
4548;DHT22;2286;51.570;7.090;2023-01-19T03:59:02;2.10;99.90
4548;DHT22;2286;51.570;7.090;2023-01-19T04:01:32;2.10;99.90
4548;DHT22;2286;51.570;7.090;2023-01-19T04:03:58;2.20;99.90
4548;DHT22;2286;51.570;7.090;2023-01-19T04:06:25;2.20;99.90
4548;DHT22;2286;51.570;7.090;2023-01-19T04:08:53;2.10;99.90
4548;DHT22;2286;51.570;7.090;2023-01-19T04:11:20;2.00;1.00
4548;DHT22;2286;51.570;7.090;2023-01-19T04:13:47;2.00;99.90
4548;DHT22;2286;51.570;7.090;2023-01-19T04:16:14;1.90;1.00
4548;DHT22;2286;51.570;7.090;2023-01-19T04:18:46;1.80;33.00
4548;DHT22;2286;51.570;7.090;2023-01-19T04:21:13;1.70;1.00
4548;DHT22;2286;51.570;7.090;2023-01-19T04:23:40;1.60;99.90
4548;DHT22;2286;51.570;7.090;2023-01-19T04:26:09;1.50;1.00
4548;DHT22;2286;51.570;7.090;2023-01-19T04:28:36;1.40;1.00
4548;DHT22;2286;51.570;7.090;2023-01-19T04:31:03;1.30;99.90
4548;DHT22;2286;51.570;7.090;2023-01-19T04:33:31;1.20;1.00
4548;DHT22;2286;51.570;7.090;2023-01-19T04:36:00;1.00;1.00
4548;DHT22;2286;51.570;7.090;2023-01-19T04:38:27;0.90;1.00
4548;DHT22;2286;51.570;7.090;2023-01-19T04:40:54;0.90;99.90
4548;DHT22;2286;51.570;7.090;2023-01-19T04:43:22;0.80;99.90
4548;DHT22;2286;51.570;7.090;2023-01-19T04:45:49;0.80;99.90
4548;DHT22;2286;51.570;7.090;2023-01-19T04:48:17;0.80;99.90
4548;DHT22;2286;51.570;7.090;2023-01-19T04:50:44;0.90;99.90
4548;DHT22;2286;51.570;7.090;2023-01-19T04:53:13;0.90;99.90
4548;DHT22;2286;51.570;7.090;2023-01-19T04:55:41;0.90;99.90
4548;DHT22;2286;51.570;7.090;2023-01-19T04:58:08;0.90;99.90
4548;DHT22;2286;51.570;7.090;2023-01-19T05:00:35;0.90;99.90
4548;DHT22;2286;51.570;7.090;2023-01-19T05:03:02;0.90;99.90
4548;DHT22;2286;51.570;7.090;2023-01-19T05:05:29;0.90;99.90
4548;DHT22;2286;51.570;7.090;2023-01-19T05:07:57;0.80;99.90
4548;DHT22;2286;51.570;7.090;2023-01-19T05:10:26;0.90;99.90
4548;DHT22;2286;51.570;7.090;2023-01-19T05:12:53;0.80;99.90
4548;DHT22;2286;51.570;7.090;2023-01-19T05:15:20;0.80;99.90
4548;DHT22;2286;51.570;7.090;2023-01-19T05:17:47;0.80;99.90
4548;DHT22;2286;51.570;7.090;2023-01-19T05:20:14;0.70;99.90
4548;DHT22;2286;51.570;7.090;2023-01-19T05:22:42;0.70;99.90
4548;DHT22;2286;51.570;7.090;2023-01-19T05:25:09;0.70;99.90
4548;DHT22;2286;51.570;7.090;2023-01-19T05:27:37;0.70;99.90
4548;DHT22;2286;51.570;7.090;2023-01-19T05:30:05;0.70;99.90
4548;DHT22;2286;51.570;7.090;2023-01-19T05:32:33;0.70;99.90
4548;DHT22;2286;51.570;7.090;2023-01-19T05:35:00;0.70;99.90
4548;DHT22;2286;51.570;7.090;2023-01-19T05:37:27;0.70;99.90
4548;DHT22;2286;51.570;7.090;2023-01-19T05:39:54;0.70;99.90
4548;DHT22;2286;51.570;7.090;2023-01-19T05:42:21;0.70;99.90
4548;DHT22;2286;51.570;7.090;2023-01-19T05:44:49;0.70;99.90
4548;DHT22;2286;51.570;7.090;2023-01-19T05:47:17;0.70;99.90
4548;DHT22;2286;51.570;7.090;2023-01-19T05:49:44;0.70;99.90
4548;DHT22;2286;51.570;7.090;2023-01-19T05:52:11;0.70;99.90
4548;DHT22;2286;51.570;7.090;2023-01-19T05:54:38;0.70;99.90
4548;DHT22;2286;51.570;7.090;2023-01-19T05:57:06;0.70;99.90
4548;DHT22;2286;51.570;7.090;2023-01-19T05:59:33;0.70;99.90
4548;DHT22;2286;51.570;7.090;2023-01-19T06:02:01;0.70;99.90
4548;DHT22;2286;51.570;7.090;2023-01-19T06:04:28;0.80;99.90
4548;DHT22;2286;51.570;7.090;2023-01-19T06:06:55;0.70;99.90
4548;DHT22;2286;51.570;7.090;2023-01-19T06:09:22;0.70;99.90
4548;DHT22;2286;51.570;7.090;2023-01-19T06:11:49;0.70;99.90
4548;DHT22;2286;51.570;7.090;2023-01-19T06:14:18;0.70;99.90
4548;DHT22;2286;51.570;7.090;2023-01-19T06:16:46;0.70;99.90
4548;DHT22;2286;51.570;7.090;2023-01-19T06:19:14;0.70;99.90
4548;DHT22;2286;51.570;7.090;2023-01-19T06:21:42;0.70;99.90
4548;DHT22;2286;51.570;7.090;2023-01-19T06:24:14;0.70;99.90
4548;DHT22;2286;51.570;7.090;2023-01-19T06:26:41;0.70;99.90
4548;DHT22;2286;51.570;7.090;2023-01-19T06:29:08;0.70;99.90
4548;DHT22;2286;51.570;7.090;2023-01-19T06:31:35;0.70;99.90
4548;DHT22;2286;51.570;7.090;2023-01-19T06:34:03;0.70;99.90
4548;DHT22;2286;51.570;7.090;2023-01-19T06:36:31;0.70;99.90
4548;DHT22;2286;51.570;7.090;2023-01-19T06:38:58;0.70;99.90
4548;DHT22;2286;51.570;7.090;2023-01-19T06:41:27;0.70;99.90
4548;DHT22;2286;51.570;7.090;2023-01-19T06:43:55;0.70;99.90
4548;DHT22;2286;51.570;7.090;2023-01-19T06:46:22;0.70;99.90
4548;DHT22;2286;51.570;7.090;2023-01-19T06:48:49;0.70;99.90
4548;DHT22;2286;51.570;7.090;2023-01-19T06:51:16;0.70;99.90
4548;DHT22;2286;51.570;7.090;2023-01-19T06:53:44;0.70;99.90
4548;DHT22;2286;51.570;7.090;2023-01-19T06:56:11;0.70;99.90
4548;DHT22;2286;51.570;7.090;2023-01-19T06:58:38;0.70;99.90
4548;DHT22;2286;51.570;7.090;2023-01-19T07:03:48;0.70;99.90
4548;DHT22;2286;51.570;7.090;2023-01-19T07:06:15;0.70;99.90
4548;DHT22;2286;51.570;7.090;2023-01-19T07:08:42;0.70;99.90
4548;DHT22;2286;51.570;7.090;2023-01-19T07:11:12;0.70;99.90
4548;DHT22;2286;51.570;7.090;2023-01-19T07:13:39;0.70;99.90
4548;DHT22;2286;51.570;7.090;2023-01-19T07:16:10;0.70;99.90
4548;DHT22;2286;51.570;7.090;2023-01-19T07:18:39;0.80;99.90
4548;DHT22;2286;51.570;7.090;2023-01-19T07:21:08;0.80;99.90
4548;DHT22;2286;51.570;7.090;2023-01-19T07:23:35;0.80;99.90
4548;DHT22;2286;51.570;7.090;2023-01-19T07:26:03;0.80;99.90
4548;DHT22;2286;51.570;7.090;2023-01-19T07:28:30;0.80;99.90
4548;DHT22;2286;51.570;7.090;2023-01-19T07:30:57;0.80;99.90
4548;DHT22;2286;51.570;7.090;2023-01-19T07:33:24;0.90;99.90
4548;DHT22;2286;51.570;7.090;2023-01-19T07:35:52;0.90;99.90
4548;DHT22;2286;51.570;7.090;2023-01-19T07:38:20;0.90;99.90
4548;DHT22;2286;51.570;7.090;2023-01-19T07:40:47;0.90;99.90
4548;DHT22;2286;51.570;7.090;2023-01-19T07:43:15;1.00;99.90
4548;DHT22;2286;51.570;7.090;2023-01-19T07:45:42;1.00;99.90
4548;DHT22;2286;51.570;7.090;2023-01-19T07:48:09;1.00;99.90
4548;DHT22;2286;51.570;7.090;2023-01-19T07:50:36;1.00;99.90
4548;DHT22;2286;51.570;7.090;2023-01-19T07:53:07;1.10;99.90
4548;DHT22;2286;51.570;7.090;2023-01-19T07:55:35;1.20;99.90
4548;DHT22;2286;51.570;7.090;2023-01-19T07:58:03;1.20;99.90
4548;DHT22;2286;51.570;7.090;2023-01-19T08:00:32;1.20;99.90
4548;DHT22;2286;51.570;7.090;2023-01-19T08:03:00;1.20;99.90
4548;DHT22;2286;51.570;7.090;2023-01-19T08:05:27;1.20;99.90
4548;DHT22;2286;51.570;7.090;2023-01-19T08:07:55;1.20;99.90
4548;DHT22;2286;51.570;7.090;2023-01-19T08:10:24;1.20;99.90
4548;DHT22;2286;51.570;7.090;2023-01-19T08:12:53;1.20;99.90
4548;DHT22;2286;51.570;7.090;2023-01-19T08:15:20;1.30;99.90
4548;DHT22;2286;51.570;7.090;2023-01-19T08:17:54;1.30;99.90
4548;DHT22;2286;51.570;7.090;2023-01-19T08:20:21;1.30;99.90
4548;DHT22;2286;51.570;7.090;2023-01-19T08:22:48;1.30;99.90
4548;DHT22;2286;51.570;7.090;2023-01-19T08:25:15;1.30;99.90
4548;DHT22;2286;51.570;7.090;2023-01-19T08:27:42;1.30;99.90
4548;DHT22;2286;51.570;7.090;2023-01-19T08:30:12;1.40;99.90
4548;DHT22;2286;51.570;7.090;2023-01-19T08:32:39;1.40;99.90
4548;DHT22;2286;51.570;7.090;2023-01-19T08:35:07;1.40;99.90
4548;DHT22;2286;51.570;7.090;2023-01-19T08:37:34;1.40;99.90
4548;DHT22;2286;51.570;7.090;2023-01-19T08:40:01;1.50;99.90
4548;DHT22;2286;51.570;7.090;2023-01-19T08:42:28;1.50;99.90
4548;DHT22;2286;51.570;7.090;2023-01-19T08:44:55;1.50;99.90
4548;DHT22;2286;51.570;7.090;2023-01-19T08:47:24;1.50;99.90
4548;DHT22;2286;51.570;7.090;2023-01-19T08:49:51;1.50;99.90
4548;DHT22;2286;51.570;7.090;2023-01-19T08:52:18;1.50;99.90
4548;DHT22;2286;51.570;7.090;2023-01-19T08:54:45;1.50;99.90
4548;DHT22;2286;51.570;7.090;2023-01-19T08:57:12;1.50;99.90
4548;DHT22;2286;51.570;7.090;2023-01-19T08:59:39;1.50;99.90
4548;DHT22;2286;51.570;7.090;2023-01-19T09:02:08;1.50;99.90
4548;DHT22;2286;51.570;7.090;2023-01-19T09:04:38;1.50;99.90
4548;DHT22;2286;51.570;7.090;2023-01-19T09:07:05;1.50;99.90
4548;DHT22;2286;51.570;7.090;2023-01-19T09:09:31;1.60;99.90
4548;DHT22;2286;51.570;7.090;2023-01-19T09:12:02;1.60;99.90
4548;DHT22;2286;51.570;7.090;2023-01-19T09:14:29;1.60;99.90
4548;DHT22;2286;51.570;7.090;2023-01-19T09:16:56;1.60;99.90
4548;DHT22;2286;51.570;7.090;2023-01-19T09:19:23;1.60;99.90
4548;DHT22;2286;51.570;7.090;2023-01-19T09:21:53;1.70;99.90
4548;DHT22;2286;51.570;7.090;2023-01-19T09:24:21;1.70;99.90
4548;DHT22;2286;51.570;7.090;2023-01-19T09:26:48;1.70;99.90
4548;DHT22;2286;51.570;7.090;2023-01-19T09:29:15;1.80;99.90
4548;DHT22;2286;51.570;7.090;2023-01-19T09:31:41;1.80;99.90
4548;DHT22;2286;51.570;7.090;2023-01-19T09:34:10;1.80;99.90
4548;DHT22;2286;51.570;7.090;2023-01-19T09:36:37;1.80;99.90
4548;DHT22;2286;51.570;7.090;2023-01-19T09:39:06;1.80;99.90
4548;DHT22;2286;51.570;7.090;2023-01-19T09:41:35;1.80;99.90
4548;DHT22;2286;51.570;7.090;2023-01-19T09:44:05;1.90;99.90
4548;DHT22;2286;51.570;7.090;2023-01-19T09:46:36;1.80;99.90
4548;DHT22;2286;51.570;7.090;2023-01-19T09:49:10;1.90;99.90
4548;DHT22;2286;51.570;7.090;2023-01-19T09:51:40;1.90;99.90
4548;DHT22;2286;51.570;7.090;2023-01-19T09:54:13;1.90;99.90
4548;DHT22;2286;51.570;7.090;2023-01-19T09:56:41;1.90;99.90
4548;DHT22;2286;51.570;7.090;2023-01-19T09:59:18;1.90;99.90
4548;DHT22;2286;51.570;7.090;2023-01-19T10:02:05;2.00;99.90
4548;DHT22;2286;51.570;7.090;2023-01-19T10:04:37;2.00;99.90
4548;DHT22;2286;51.570;7.090;2023-01-19T10:07:13;2.10;99.90
4548;DHT22;2286;51.570;7.090;2023-01-19T10:09:58;2.20;99.90
4548;DHT22;2286;51.570;7.090;2023-01-19T10:12:35;2.10;99.90
4548;DHT22;2286;51.570;7.090;2023-01-19T10:15:14;2.10;99.90
4548;DHT22;2286;51.570;7.090;2023-01-19T10:17:52;2.20;99.90
4548;DHT22;2286;51.570;7.090;2023-01-19T10:20:24;2.20;99.90
4548;DHT22;2286;51.570;7.090;2023-01-19T10:22:53;2.20;99.90
4548;DHT22;2286;51.570;7.090;2023-01-19T10:25:23;2.20;99.90
4548;DHT22;2286;51.570;7.090;2023-01-19T10:27:50;2.20;99.90
4548;DHT22;2286;51.570;7.090;2023-01-19T10:30:20;2.10;99.90
4548;DHT22;2286;51.570;7.090;2023-01-19T10:32:48;2.10;99.90
4548;DHT22;2286;51.570;7.090;2023-01-19T10:35:18;2.10;99.90
4548;DHT22;2286;51.570;7.090;2023-01-19T10:37:49;2.00;99.90
4548;DHT22;2286;51.570;7.090;2023-01-19T10:40:26;2.00;99.90
4548;DHT22;2286;51.570;7.090;2023-01-19T10:42:55;2.00;99.90
4548;DHT22;2286;51.570;7.090;2023-01-19T10:45:24;2.10;99.90
4548;DHT22;2286;51.570;7.090;2023-01-19T10:47:54;2.20;99.90
4548;DHT22;2286;51.570;7.090;2023-01-19T10:50:26;2.40;99.90
4548;DHT22;2286;51.570;7.090;2023-01-19T10:52:54;2.60;99.90
4548;DHT22;2286;51.570;7.090;2023-01-19T10:55:26;2.60;99.90
4548;DHT22;2286;51.570;7.090;2023-01-19T10:57:53;2.50;99.90
4548;DHT22;2286;51.570;7.090;2023-01-19T11:00:35;2.60;99.90
4548;DHT22;2286;51.570;7.090;2023-01-19T11:03:03;2.50;99.90
4548;DHT22;2286;51.570;7.090;2023-01-19T11:05:31;2.60;99.90
4548;DHT22;2286;51.570;7.090;2023-01-19T11:07:58;2.60;99.90
4548;DHT22;2286;51.570;7.090;2023-01-19T11:10:28;2.60;99.90
4548;DHT22;2286;51.570;7.090;2023-01-19T11:12:58;2.60;99.90
4548;DHT22;2286;51.570;7.090;2023-01-19T11:15:31;2.70;99.90
4548;DHT22;2286;51.570;7.090;2023-01-19T11:18:01;2.90;99.90
4548;DHT22;2286;51.570;7.090;2023-01-19T11:20:33;3.20;99.90
4548;DHT22;2286;51.570;7.090;2023-01-19T11:23:04;3.30;99.90
4548;DHT22;2286;51.570;7.090;2023-01-19T11:25:34;3.20;99.90
4548;DHT22;2286;51.570;7.090;2023-01-19T11:28:02;3.20;99.90
4548;DHT22;2286;51.570;7.090;2023-01-19T11:30:30;3.20;99.90
4548;DHT22;2286;51.570;7.090;2023-01-19T11:32:57;3.10;99.90
4548;DHT22;2286;51.570;7.090;2023-01-19T11:35:32;3.00;99.90
4548;DHT22;2286;51.570;7.090;2023-01-19T11:38:16;2.90;99.90
4548;DHT22;2286;51.570;7.090;2023-01-19T11:40:52;2.90;99.90
4548;DHT22;2286;51.570;7.090;2023-01-19T11:43:21;2.90;99.90
4548;DHT22;2286;51.570;7.090;2023-01-19T11:45:49;3.20;99.90
4548;DHT22;2286;51.570;7.090;2023-01-19T11:48:22;3.20;99.90
4548;DHT22;2286;51.570;7.090;2023-01-19T11:50:50;3.20;99.90
4548;DHT22;2286;51.570;7.090;2023-01-19T11:53:20;3.10;99.90
4548;DHT22;2286;51.570;7.090;2023-01-19T11:55:54;3.00;99.90
4548;DHT22;2286;51.570;7.090;2023-01-19T11:58:22;2.90;99.90
4548;DHT22;2286;51.570;7.090;2023-01-19T12:00:53;2.80;99.90
4548;DHT22;2286;51.570;7.090;2023-01-19T12:03:25;2.80;99.90
4548;DHT22;2286;51.570;7.090;2023-01-19T12:05:58;2.80;99.90
4548;DHT22;2286;51.570;7.090;2023-01-19T12:08:31;2.70;99.90
4548;DHT22;2286;51.570;7.090;2023-01-19T12:11:02;2.80;99.90
4548;DHT22;2286;51.570;7.090;2023-01-19T12:13:31;2.80;99.90
4548;DHT22;2286;51.570;7.090;2023-01-19T12:16:03;2.80;99.90
4548;DHT22;2286;51.570;7.090;2023-01-19T12:18:36;2.70;99.90
4548;DHT22;2286;51.570;7.090;2023-01-19T12:21:04;2.70;99.90
4548;DHT22;2286;51.570;7.090;2023-01-19T12:23:45;2.60;99.90
4548;DHT22;2286;51.570;7.090;2023-01-19T12:26:26;2.70;99.90
4548;DHT22;2286;51.570;7.090;2023-01-19T12:28:55;2.70;99.90
4548;DHT22;2286;51.570;7.090;2023-01-19T12:31:26;2.70;99.90
4548;DHT22;2286;51.570;7.090;2023-01-19T12:33:53;2.70;99.90
4548;DHT22;2286;51.570;7.090;2023-01-19T12:36:43;2.80;99.90
4548;DHT22;2286;51.570;7.090;2023-01-19T12:39:16;2.90;99.90
4548;DHT22;2286;51.570;7.090;2023-01-19T12:41:46;3.00;99.90
4548;DHT22;2286;51.570;7.090;2023-01-19T12:44:24;3.10;99.90
4548;DHT22;2286;51.570;7.090;2023-01-19T12:46:54;3.00;99.90
4548;DHT22;2286;51.570;7.090;2023-01-19T12:49:24;3.00;99.90
4548;DHT22;2286;51.570;7.090;2023-01-19T12:51:54;3.10;99.90
4548;DHT22;2286;51.570;7.090;2023-01-19T12:54:39;3.10;99.90
4548;DHT22;2286;51.570;7.090;2023-01-19T12:57:15;3.10;99.90
4548;DHT22;2286;51.570;7.090;2023-01-19T12:59:45;3.20;99.90
4548;DHT22;2286;51.570;7.090;2023-01-19T13:05:17;3.50;99.90
4548;DHT22;2286;51.570;7.090;2023-01-19T13:08:14;3.40;99.90
4548;DHT22;2286;51.570;7.090;2023-01-19T13:17:14;4.00;99.90
4548;DHT22;2286;51.570;7.090;2023-01-19T13:25:39;3.70;1.00
4548;DHT22;2286;51.570;7.090;2023-01-19T13:28:08;3.90;66.20
4548;DHT22;2286;51.570;7.090;2023-01-19T13:30:43;3.80;1.00
4548;DHT22;2286;51.570;7.090;2023-01-19T13:33:19;3.60;1.00
4548;DHT22;2286;51.570;7.090;2023-01-19T13:35:53;3.40;50.40
4548;DHT22;2286;51.570;7.090;2023-01-19T13:38:22;3.30;99.90
4548;DHT22;2286;51.570;7.090;2023-01-19T13:40:49;3.20;99.90
4548;DHT22;2286;51.570;7.090;2023-01-19T13:43:18;3.20;99.90
4548;DHT22;2286;51.570;7.090;2023-01-19T13:45:48;3.10;99.90
4548;DHT22;2286;51.570;7.090;2023-01-19T13:48:20;3.30;99.90
4548;DHT22;2286;51.570;7.090;2023-01-19T13:51:04;3.20;99.90
4548;DHT22;2286;51.570;7.090;2023-01-19T13:53:32;3.20;99.90
4548;DHT22;2286;51.570;7.090;2023-01-19T13:56:22;3.20;99.90
4548;DHT22;2286;51.570;7.090;2023-01-19T13:59:04;3.10;99.90
4548;DHT22;2286;51.570;7.090;2023-01-19T14:01:36;3.20;99.90
4548;DHT22;2286;51.570;7.090;2023-01-19T14:04:04;3.10;99.90
4548;DHT22;2286;51.570;7.090;2023-01-19T14:06:37;3.10;99.90
4548;DHT22;2286;51.570;7.090;2023-01-19T14:09:14;3.10;99.90
4548;DHT22;2286;51.570;7.090;2023-01-19T14:11:42;3.10;99.90
4548;DHT22;2286;51.570;7.090;2023-01-19T14:14:23;3.10;99.90
4548;DHT22;2286;51.570;7.090;2023-01-19T14:16:50;3.10;99.90
4548;DHT22;2286;51.570;7.090;2023-01-19T14:19:18;3.20;99.90
4548;DHT22;2286;51.570;7.090;2023-01-19T14:21:57;3.30;99.90
4548;DHT22;2286;51.570;7.090;2023-01-19T14:24:24;3.50;99.90
4548;DHT22;2286;51.570;7.090;2023-01-19T14:27:06;3.50;99.90
4548;DHT22;2286;51.570;7.090;2023-01-19T14:29:34;3.40;99.90
4548;DHT22;2286;51.570;7.090;2023-01-19T14:32:13;3.30;99.90
4548;DHT22;2286;51.570;7.090;2023-01-19T14:34:43;3.40;99.90
4548;DHT22;2286;51.570;7.090;2023-01-19T14:37:19;3.40;99.90
4548;DHT22;2286;51.570;7.090;2023-01-19T14:39:49;3.40;99.90
4548;DHT22;2286;51.570;7.090;2023-01-19T14:42:21;3.40;99.90
4548;DHT22;2286;51.570;7.090;2023-01-19T14:44:51;3.30;99.90
4548;DHT22;2286;51.570;7.090;2023-01-19T14:47:30;3.30;99.90
4548;DHT22;2286;51.570;7.090;2023-01-19T14:50:04;3.30;99.90
4548;DHT22;2286;51.570;7.090;2023-01-19T14:52:36;3.30;98.50
4548;DHT22;2286;51.570;7.090;2023-01-19T14:55:04;3.20;95.70
4548;DHT22;2286;51.570;7.090;2023-01-19T14:57:33;3.20;83.00
4548;DHT22;2286;51.570;7.090;2023-01-19T15:00:08;3.30;11.60
4548;DHT22;2286;51.570;7.090;2023-01-19T15:02:36;3.30;1.00
4548;DHT22;2286;51.570;7.090;2023-01-19T15:05:05;3.30;1.00
4548;DHT22;2286;51.570;7.090;2023-01-19T15:07:33;3.20;1.00
4548;DHT22;2286;51.570;7.090;2023-01-19T15:10:00;3.20;1.00
4548;DHT22;2286;51.570;7.090;2023-01-19T15:12:28;3.10;1.00
4548;DHT22;2286;51.570;7.090;2023-01-19T15:14:55;3.00;1.00
4548;DHT22;2286;51.570;7.090;2023-01-19T15:17:22;2.90;1.00
4548;DHT22;2286;51.570;7.090;2023-01-19T15:19:51;2.80;1.00
4548;DHT22;2286;51.570;7.090;2023-01-19T15:22:21;2.80;18.40
4548;DHT22;2286;51.570;7.090;2023-01-19T15:24:48;2.80;26.70
4548;DHT22;2286;51.570;7.090;2023-01-19T15:27:15;2.70;46.40
4548;DHT22;2286;51.570;7.090;2023-01-19T15:29:42;2.70;99.90
4548;DHT22;2286;51.570;7.090;2023-01-19T15:32:11;2.60;99.90
4548;DHT22;2286;51.570;7.090;2023-01-19T15:34:38;2.50;99.90
4548;DHT22;2286;51.570;7.090;2023-01-19T15:37:06;2.40;99.90
4548;DHT22;2286;51.570;7.090;2023-01-19T15:39:34;2.40;99.90
4548;DHT22;2286;51.570;7.090;2023-01-19T15:42:01;2.40;99.90
4548;DHT22;2286;51.570;7.090;2023-01-19T15:44:29;2.30;99.90
4548;DHT22;2286;51.570;7.090;2023-01-19T15:46:56;2.30;99.90
4548;DHT22;2286;51.570;7.090;2023-01-19T15:49:23;2.30;99.90
4548;DHT22;2286;51.570;7.090;2023-01-19T15:51:50;2.20;99.90
4548;DHT22;2286;51.570;7.090;2023-01-19T15:54:18;2.10;99.90
4548;DHT22;2286;51.570;7.090;2023-01-19T15:56:46;2.00;99.90
4548;DHT22;2286;51.570;7.090;2023-01-19T15:59:13;2.00;99.90
4548;DHT22;2286;51.570;7.090;2023-01-19T16:01:40;2.10;99.90
4548;DHT22;2286;51.570;7.090;2023-01-19T16:04:08;2.00;99.90
4548;DHT22;2286;51.570;7.090;2023-01-19T16:06:36;1.90;99.90
4548;DHT22;2286;51.570;7.090;2023-01-19T16:09:03;2.00;99.90
4548;DHT22;2286;51.570;7.090;2023-01-19T16:11:33;1.90;99.90
4548;DHT22;2286;51.570;7.090;2023-01-19T16:14:03;1.90;99.90
4548;DHT22;2286;51.570;7.090;2023-01-19T16:16:30;1.90;99.90
4548;DHT22;2286;51.570;7.090;2023-01-19T16:18:57;1.90;99.90
4548;DHT22;2286;51.570;7.090;2023-01-19T16:21:24;1.90;99.90
4548;DHT22;2286;51.570;7.090;2023-01-19T16:23:51;1.90;99.90
4548;DHT22;2286;51.570;7.090;2023-01-19T16:26:24;1.90;99.90
4548;DHT22;2286;51.570;7.090;2023-01-19T16:28:52;1.90;99.90
4548;DHT22;2286;51.570;7.090;2023-01-19T16:31:22;2.00;99.90
4548;DHT22;2286;51.570;7.090;2023-01-19T16:33:49;1.90;99.90
4548;DHT22;2286;51.570;7.090;2023-01-19T16:36:24;2.00;99.90
4548;DHT22;2286;51.570;7.090;2023-01-19T16:38:52;1.90;99.90
4548;DHT22;2286;51.570;7.090;2023-01-19T16:41:19;1.90;99.90
4548;DHT22;2286;51.570;7.090;2023-01-19T16:43:50;1.90;99.90
4548;DHT22;2286;51.570;7.090;2023-01-19T16:46:23;1.90;99.90
4548;DHT22;2286;51.570;7.090;2023-01-19T16:48:52;2.00;99.90
4548;DHT22;2286;51.570;7.090;2023-01-19T16:51:20;1.90;99.90
4548;DHT22;2286;51.570;7.090;2023-01-19T16:53:48;1.90;99.90